sensor_id;sensor_type;location;lat;lon;timestamp;P1;durP1;ratioP1;P2;durP2;ratioP2
48635;SDS011;34429;52.332;5.614;2023-01-31T00:00:07;16.33;;;2.67;;
48635;SDS011;34429;52.332;5.614;2023-01-31T00:02:37;13.57;;;3.30;;
48635;SDS011;34429;52.332;5.614;2023-01-31T00:05:05;11.73;;;2.50;;
48635;SDS011;34429;52.332;5.614;2023-01-31T00:07:37;16.20;;;2.90;;
48635;SDS011;34429;52.332;5.614;2023-01-31T00:10:09;15.52;;;2.55;;
48635;SDS011;34429;52.332;5.614;2023-01-31T00:12:38;11.23;;;2.67;;
48635;SDS011;34429;52.332;5.614;2023-01-31T00:15:06;18.88;;;2.50;;
48635;SDS011;34429;52.332;5.614;2023-01-31T00:17:37;18.20;;;2.80;;
48635;SDS011;34429;52.332;5.614;2023-01-31T00:20:06;19.45;;;2.88;;
48635;SDS011;34429;52.332;5.614;2023-01-31T00:22:36;15.52;;;2.80;;
48635;SDS011;34429;52.332;5.614;2023-01-31T00:25:05;16.08;;;3.20;;
48635;SDS011;34429;52.332;5.614;2023-01-31T00:27:36;18.13;;;2.97;;
48635;SDS011;34429;52.332;5.614;2023-01-31T00:30:05;14.23;;;2.70;;
48635;SDS011;34429;52.332;5.614;2023-01-31T00:32:35;12.35;;;2.58;;
48635;SDS011;34429;52.332;5.614;2023-01-31T00:35:03;15.25;;;2.55;;
48635;SDS011;34429;52.332;5.614;2023-01-31T00:37:32;14.40;;;2.50;;
48635;SDS011;34429;52.332;5.614;2023-01-31T00:40:01;11.25;;;2.88;;
48635;SDS011;34429;52.332;5.614;2023-01-31T00:42:32;10.98;;;2.67;;
48635;SDS011;34429;52.332;5.614;2023-01-31T00:45:00;16.95;;;2.53;;
48635;SDS011;34429;52.332;5.614;2023-01-31T00:47:28;17.70;;;2.97;;
48635;SDS011;34429;52.332;5.614;2023-01-31T00:49:57;13.15;;;2.33;;
48635;SDS011;34429;52.332;5.614;2023-01-31T00:52:25;15.45;;;2.42;;
48635;SDS011;34429;52.332;5.614;2023-01-31T00:54:53;11.13;;;3.15;;
48635;SDS011;34429;52.332;5.614;2023-01-31T00:57:22;17.77;;;2.40;;
48635;SDS011;34429;52.332;5.614;2023-01-31T00:59:53;10.70;;;2.00;;
48635;SDS011;34429;52.332;5.614;2023-01-31T01:02:21;16.52;;;3.35;;
48635;SDS011;34429;52.332;5.614;2023-01-31T01:04:50;10.88;;;2.30;;
48635;SDS011;34429;52.332;5.614;2023-01-31T01:07:18;13.50;;;2.53;;
48635;SDS011;34429;52.332;5.614;2023-01-31T01:09:47;18.98;;;2.60;;
48635;SDS011;34429;52.332;5.614;2023-01-31T01:14:44;11.55;;;2.35;;
48635;SDS011;34429;52.332;5.614;2023-01-31T01:17:15;17.52;;;2.88;;
48635;SDS011;34429;52.332;5.614;2023-01-31T01:19:43;11.65;;;2.47;;
48635;SDS011;34429;52.332;5.614;2023-01-31T01:22:12;10.70;;;2.47;;
48635;SDS011;34429;52.332;5.614;2023-01-31T01:24:41;16.60;;;2.72;;
48635;SDS011;34429;52.332;5.614;2023-01-31T01:27:09;13.90;;;2.58;;
48635;SDS011;34429;52.332;5.614;2023-01-31T01:32:07;8.63;;;2.22;;
48635;SDS011;34429;52.332;5.614;2023-01-31T01:34:38;17.65;;;3.58;;
48635;SDS011;34429;52.332;5.614;2023-01-31T01:37:06;12.45;;;2.63;;
48635;SDS011;34429;52.332;5.614;2023-01-31T01:39:44;9.32;;;1.92;;
48635;SDS011;34429;52.332;5.614;2023-01-31T01:42:13;16.17;;;2.85;;
48635;SDS011;34429;52.332;5.614;2023-01-31T01:44:47;15.88;;;2.65;;
48635;SDS011;34429;52.332;5.614;2023-01-31T01:47:19;16.98;;;3.05;;
48635;SDS011;34429;52.332;5.614;2023-01-31T01:49:59;10.30;;;2.40;;
48635;SDS011;34429;52.332;5.614;2023-01-31T01:52:31;13.73;;;2.38;;
48635;SDS011;34429;52.332;5.614;2023-01-31T01:55:05;14.40;;;2.35;;
48635;SDS011;34429;52.332;5.614;2023-01-31T01:57:41;10.65;;;1.80;;
48635;SDS011;34429;52.332;5.614;2023-01-31T02:00:13;14.52;;;3.05;;
48635;SDS011;34429;52.332;5.614;2023-01-31T02:02:50;15.57;;;3.00;;
48635;SDS011;34429;52.332;5.614;2023-01-31T02:05:27;14.80;;;2.53;;
48635;SDS011;34429;52.332;5.614;2023-01-31T02:07:58;14.70;;;2.58;;
48635;SDS011;34429;52.332;5.614;2023-01-31T02:10:29;13.40;;;3.13;;
48635;SDS011;34429;52.332;5.614;2023-01-31T02:12:59;10.63;;;2.47;;
48635;SDS011;34429;52.332;5.614;2023-01-31T02:15:29;8.75;;;1.95;;
48635;SDS011;34429;52.332;5.614;2023-01-31T02:20:36;10.88;;;2.90;;
48635;SDS011;34429;52.332;5.614;2023-01-31T02:23:32;16.40;;;2.40;;
48635;SDS011;34429;52.332;5.614;2023-01-31T02:26:29;12.73;;;2.00;;
48635;SDS011;34429;52.332;5.614;2023-01-31T02:29:24;17.73;;;2.90;;
48635;SDS011;34429;52.332;5.614;2023-01-31T02:35:15;18.45;;;2.72;;
48635;SDS011;34429;52.332;5.614;2023-01-31T02:37:54;14.85;;;2.78;;
48635;SDS011;34429;52.332;5.614;2023-01-31T02:40:35;16.02;;;2.20;;
48635;SDS011;34429;52.332;5.614;2023-01-31T02:43:10;16.17;;;2.75;;
48635;SDS011;34429;52.332;5.614;2023-01-31T02:45:47;18.35;;;2.80;;
48635;SDS011;34429;52.332;5.614;2023-01-31T02:48:18;15.60;;;2.67;;
48635;SDS011;34429;52.332;5.614;2023-01-31T02:50:59;17.75;;;3.60;;
48635;SDS011;34429;52.332;5.614;2023-01-31T02:53:35;12.80;;;3.22;;
48635;SDS011;34429;52.332;5.614;2023-01-31T02:56:09;17.75;;;2.90;;
48635;SDS011;34429;52.332;5.614;2023-01-31T02:58:45;16.40;;;2.63;;
48635;SDS011;34429;52.332;5.614;2023-01-31T03:01:20;11.35;;;2.75;;
48635;SDS011;34429;52.332;5.614;2023-01-31T03:03:52;15.13;;;2.67;;
48635;SDS011;34429;52.332;5.614;2023-01-31T03:09:31;19.92;;;3.40;;
48635;SDS011;34429;52.332;5.614;2023-01-31T03:12:07;21.42;;;3.15;;
48635;SDS011;34429;52.332;5.614;2023-01-31T03:14:57;13.23;;;3.42;;
48635;SDS011;34429;52.332;5.614;2023-01-31T03:17:41;24.05;;;4.13;;
48635;SDS011;34429;52.332;5.614;2023-01-31T03:20:19;18.70;;;3.08;;
48635;SDS011;34429;52.332;5.614;2023-01-31T03:22:55;18.67;;;3.97;;
48635;SDS011;34429;52.332;5.614;2023-01-31T03:25:30;13.50;;;2.95;;
48635;SDS011;34429;52.332;5.614;2023-01-31T03:28:02;22.00;;;3.72;;
48635;SDS011;34429;52.332;5.614;2023-01-31T03:30:36;16.90;;;3.45;;
48635;SDS011;34429;52.332;5.614;2023-01-31T03:33:11;18.25;;;3.25;;
48635;SDS011;34429;52.332;5.614;2023-01-31T03:35:44;17.58;;;3.88;;
48635;SDS011;34429;52.332;5.614;2023-01-31T03:38:18;18.02;;;3.80;;
48635;SDS011;34429;52.332;5.614;2023-01-31T03:40:52;17.83;;;4.22;;
48635;SDS011;34429;52.332;5.614;2023-01-31T03:43:26;24.23;;;4.03;;
48635;SDS011;34429;52.332;5.614;2023-01-31T03:46:03;23.67;;;3.95;;
48635;SDS011;34429;52.332;5.614;2023-01-31T03:48:36;20.75;;;5.03;;
48635;SDS011;34429;52.332;5.614;2023-01-31T03:51:09;18.15;;;3.83;;
48635;SDS011;34429;52.332;5.614;2023-01-31T03:53:42;23.77;;;4.65;;
48635;SDS011;34429;52.332;5.614;2023-01-31T03:56:19;22.33;;;5.25;;
48635;SDS011;34429;52.332;5.614;2023-01-31T03:58:53;18.90;;;4.35;;
48635;SDS011;34429;52.332;5.614;2023-01-31T04:01:26;17.60;;;5.07;;
48635;SDS011;34429;52.332;5.614;2023-01-31T04:04:00;22.88;;;4.32;;
48635;SDS011;34429;52.332;5.614;2023-01-31T04:06:34;13.63;;;4.57;;
48635;SDS011;34429;52.332;5.614;2023-01-31T04:09:03;18.30;;;4.03;;
48635;SDS011;34429;52.332;5.614;2023-01-31T04:11:37;21.58;;;4.30;;
48635;SDS011;34429;52.332;5.614;2023-01-31T04:14:07;26.92;;;4.50;;
48635;SDS011;34429;52.332;5.614;2023-01-31T04:16:37;22.02;;;4.40;;
48635;SDS011;34429;52.332;5.614;2023-01-31T04:19:05;16.58;;;4.85;;
48635;SDS011;34429;52.332;5.614;2023-01-31T04:21:36;19.77;;;5.22;;
48635;SDS011;34429;52.332;5.614;2023-01-31T04:24:05;27.15;;;5.45;;
48635;SDS011;34429;52.332;5.614;2023-01-31T04:26:36;17.38;;;5.20;;
48635;SDS011;34429;52.332;5.614;2023-01-31T04:29:05;27.40;;;5.78;;
48635;SDS011;34429;52.332;5.614;2023-01-31T04:31:33;24.38;;;6.53;;
48635;SDS011;34429;52.332;5.614;2023-01-31T04:34:01;19.05;;;5.50;;
48635;SDS011;34429;52.332;5.614;2023-01-31T04:36:30;24.10;;;6.03;;
48635;SDS011;34429;52.332;5.614;2023-01-31T04:38:58;22.35;;;5.45;;
48635;SDS011;34429;52.332;5.614;2023-01-31T04:41:27;19.13;;;5.72;;
48635;SDS011;34429;52.332;5.614;2023-01-31T04:43:58;21.17;;;5.90;;
48635;SDS011;34429;52.332;5.614;2023-01-31T04:46:26;21.08;;;5.90;;
48635;SDS011;34429;52.332;5.614;2023-01-31T04:48:55;24.70;;;5.80;;
48635;SDS011;34429;52.332;5.614;2023-01-31T04:51:23;21.35;;;6.78;;
48635;SDS011;34429;52.332;5.614;2023-01-31T04:53:52;33.15;;;7.07;;
48635;SDS011;34429;52.332;5.614;2023-01-31T04:56:20;24.05;;;6.38;;
48635;SDS011;34429;52.332;5.614;2023-01-31T04:58:49;32.67;;;7.38;;
48635;SDS011;34429;52.332;5.614;2023-01-31T05:01:20;24.60;;;6.28;;
48635;SDS011;34429;52.332;5.614;2023-01-31T05:03:48;25.85;;;6.50;;
48635;SDS011;34429;52.332;5.614;2023-01-31T05:06:16;31.58;;;6.75;;
48635;SDS011;34429;52.332;5.614;2023-01-31T05:08:44;27.95;;;6.68;;
48635;SDS011;34429;52.332;5.614;2023-01-31T05:11:13;32.72;;;8.77;;
48635;SDS011;34429;52.332;5.614;2023-01-31T05:13:41;24.70;;;7.10;;
48635;SDS011;34429;52.332;5.614;2023-01-31T05:16:10;33.03;;;6.93;;
48635;SDS011;34429;52.332;5.614;2023-01-31T05:18:41;22.83;;;6.00;;
48635;SDS011;34429;52.332;5.614;2023-01-31T05:21:09;22.40;;;7.22;;
48635;SDS011;34429;52.332;5.614;2023-01-31T05:23:38;27.38;;;5.75;;
48635;SDS011;34429;52.332;5.614;2023-01-31T05:26:06;32.08;;;5.88;;
48635;SDS011;34429;52.332;5.614;2023-01-31T05:28:35;28.30;;;6.13;;
48635;SDS011;34429;52.332;5.614;2023-01-31T05:31:04;25.67;;;5.53;;
48635;SDS011;34429;52.332;5.614;2023-01-31T05:33:34;17.30;;;5.30;;
48635;SDS011;34429;52.332;5.614;2023-01-31T05:36:05;19.60;;;6.03;;
48635;SDS011;34429;52.332;5.614;2023-01-31T05:38:34;25.98;;;6.60;;
48635;SDS011;34429;52.332;5.614;2023-01-31T05:41:03;33.47;;;5.97;;
48635;SDS011;34429;52.332;5.614;2023-01-31T05:43:31;19.92;;;5.85;;
48635;SDS011;34429;52.332;5.614;2023-01-31T05:46:00;25.40;;;7.20;;
48635;SDS011;34429;52.332;5.614;2023-01-31T05:48:28;26.92;;;6.65;;
48635;SDS011;34429;52.332;5.614;2023-01-31T05:50:56;26.15;;;6.03;;
48635;SDS011;34429;52.332;5.614;2023-01-31T05:53:27;24.02;;;5.80;;
48635;SDS011;34429;52.332;5.614;2023-01-31T05:55:55;26.02;;;5.95;;
48635;SDS011;34429;52.332;5.614;2023-01-31T05:58:24;20.67;;;7.10;;
48635;SDS011;34429;52.332;5.614;2023-01-31T06:00:53;18.95;;;5.85;;
48635;SDS011;34429;52.332;5.614;2023-01-31T06:03:22;18.52;;;5.45;;
48635;SDS011;34429;52.332;5.614;2023-01-31T06:05:50;21.20;;;5.47;;
48635;SDS011;34429;52.332;5.614;2023-01-31T06:08:18;27.60;;;6.07;;
48635;SDS011;34429;52.332;5.614;2023-01-31T06:10:49;29.20;;;6.35;;
48635;SDS011;34429;52.332;5.614;2023-01-31T06:13:18;25.05;;;6.22;;
48635;SDS011;34429;52.332;5.614;2023-01-31T06:15:46;36.42;;;7.50;;
48635;SDS011;34429;52.332;5.614;2023-01-31T06:18:16;24.17;;;5.32;;
48635;SDS011;34429;52.332;5.614;2023-01-31T06:20:44;24.17;;;5.80;;
48635;SDS011;34429;52.332;5.614;2023-01-31T06:23:13;16.58;;;5.50;;
48635;SDS011;34429;52.332;5.614;2023-01-31T06:25:41;15.13;;;6.22;;
48635;SDS011;34429;52.332;5.614;2023-01-31T06:28:12;26.73;;;6.32;;
48635;SDS011;34429;52.332;5.614;2023-01-31T06:30:40;19.42;;;5.00;;
48635;SDS011;34429;52.332;5.614;2023-01-31T06:33:12;26.48;;;6.53;;
48635;SDS011;34429;52.332;5.614;2023-01-31T06:35:40;28.35;;;7.43;;
48635;SDS011;34429;52.332;5.614;2023-01-31T06:38:09;27.70;;;6.20;;
48635;SDS011;34429;52.332;5.614;2023-01-31T06:40:40;23.83;;;6.63;;
48635;SDS011;34429;52.332;5.614;2023-01-31T06:43:08;18.97;;;6.73;;
48635;SDS011;34429;52.332;5.614;2023-01-31T06:45:39;20.50;;;5.88;;
48635;SDS011;34429;52.332;5.614;2023-01-31T06:48:09;30.15;;;6.93;;
48635;SDS011;34429;52.332;5.614;2023-01-31T06:50:38;24.83;;;5.35;;
48635;SDS011;34429;52.332;5.614;2023-01-31T06:53:06;26.73;;;7.18;;
48635;SDS011;34429;52.332;5.614;2023-01-31T06:55:35;21.33;;;6.63;;
48635;SDS011;34429;52.332;5.614;2023-01-31T06:58:03;22.13;;;6.57;;
48635;SDS011;34429;52.332;5.614;2023-01-31T07:00:32;21.50;;;5.93;;
48635;SDS011;34429;52.332;5.614;2023-01-31T07:03:02;16.77;;;5.40;;
48635;SDS011;34429;52.332;5.614;2023-01-31T07:05:31;21.05;;;6.40;;
48635;SDS011;34429;52.332;5.614;2023-01-31T07:07:59;19.58;;;5.60;;
48635;SDS011;34429;52.332;5.614;2023-01-31T07:10:28;16.70;;;6.17;;
48635;SDS011;34429;52.332;5.614;2023-01-31T07:12:56;32.53;;;6.63;;
48635;SDS011;34429;52.332;5.614;2023-01-31T07:15:25;19.00;;;6.00;;
48635;SDS011;34429;52.332;5.614;2023-01-31T07:17:56;23.00;;;5.32;;
48635;SDS011;34429;52.332;5.614;2023-01-31T07:20:28;24.63;;;5.18;;
48635;SDS011;34429;52.332;5.614;2023-01-31T07:22:57;21.65;;;5.00;;
48635;SDS011;34429;52.332;5.614;2023-01-31T07:25:26;18.38;;;4.50;;
48635;SDS011;34429;52.332;5.614;2023-01-31T07:27:56;19.52;;;5.13;;
48635;SDS011;34429;52.332;5.614;2023-01-31T07:30:24;16.30;;;4.93;;
48635;SDS011;34429;52.332;5.614;2023-01-31T07:32:53;24.00;;;4.65;;
48635;SDS011;34429;52.332;5.614;2023-01-31T07:35:21;27.15;;;4.78;;
48635;SDS011;34429;52.332;5.614;2023-01-31T07:37:53;18.23;;;4.70;;
48635;SDS011;34429;52.332;5.614;2023-01-31T07:40:21;19.90;;;4.60;;
48635;SDS011;34429;52.332;5.614;2023-01-31T07:42:50;21.88;;;4.22;;
48635;SDS011;34429;52.332;5.614;2023-01-31T07:45:18;15.90;;;6.10;;
48635;SDS011;34429;52.332;5.614;2023-01-31T07:47:46;20.10;;;4.68;;
48635;SDS011;34429;52.332;5.614;2023-01-31T07:50:15;20.23;;;4.70;;
48635;SDS011;34429;52.332;5.614;2023-01-31T07:52:44;16.52;;;4.60;;
48635;SDS011;34429;52.332;5.614;2023-01-31T07:55:15;19.38;;;5.18;;
48635;SDS011;34429;52.332;5.614;2023-01-31T07:57:44;15.38;;;4.05;;
48635;SDS011;34429;52.332;5.614;2023-01-31T08:00:13;15.50;;;4.45;;
48635;SDS011;34429;52.332;5.614;2023-01-31T08:02:54;21.45;;;5.68;;
48635;SDS011;34429;52.332;5.614;2023-01-31T08:05:34;20.58;;;4.57;;
48635;SDS011;34429;52.332;5.614;2023-01-31T08:08:03;20.77;;;5.00;;
48635;SDS011;34429;52.332;5.614;2023-01-31T08:10:39;25.70;;;5.80;;
48635;SDS011;34429;52.332;5.614;2023-01-31T08:13:07;25.30;;;4.75;;
48635;SDS011;34429;52.332;5.614;2023-01-31T08:15:36;19.27;;;4.10;;
48635;SDS011;34429;52.332;5.614;2023-01-31T08:18:04;14.13;;;3.85;;
48635;SDS011;34429;52.332;5.614;2023-01-31T08:20:33;20.05;;;4.13;;
48635;SDS011;34429;52.332;5.614;2023-01-31T08:23:02;12.30;;;3.63;;
48635;SDS011;34429;52.332;5.614;2023-01-31T08:25:30;25.42;;;4.65;;
48635;SDS011;34429;52.332;5.614;2023-01-31T08:28:03;12.82;;;4.35;;
48635;SDS011;34429;52.332;5.614;2023-01-31T08:30:31;22.77;;;4.00;;
48635;SDS011;34429;52.332;5.614;2023-01-31T08:32:59;22.98;;;4.03;;
48635;SDS011;34429;52.332;5.614;2023-01-31T08:35:28;20.85;;;3.83;;
48635;SDS011;34429;52.332;5.614;2023-01-31T08:37:56;21.60;;;4.28;;
48635;SDS011;34429;52.332;5.614;2023-01-31T08:40:24;16.00;;;3.60;;
48635;SDS011;34429;52.332;5.614;2023-01-31T08:42:53;21.30;;;3.53;;
48635;SDS011;34429;52.332;5.614;2023-01-31T08:45:24;17.17;;;3.78;;
48635;SDS011;34429;52.332;5.614;2023-01-31T08:47:53;14.30;;;3.42;;
48635;SDS011;34429;52.332;5.614;2023-01-31T08:50:22;19.90;;;3.75;;
48635;SDS011;34429;52.332;5.614;2023-01-31T08:52:52;22.65;;;4.00;;
48635;SDS011;34429;52.332;5.614;2023-01-31T08:55:20;18.08;;;3.85;;
48635;SDS011;34429;52.332;5.614;2023-01-31T08:57:49;16.55;;;4.22;;
48635;SDS011;34429;52.332;5.614;2023-01-31T09:00:19;12.07;;;3.35;;
48635;SDS011;34429;52.332;5.614;2023-01-31T09:05:21;14.65;;;2.97;;
48635;SDS011;34429;52.332;5.614;2023-01-31T09:07:50;21.88;;;3.75;;
48635;SDS011;34429;52.332;5.614;2023-01-31T09:10:18;11.15;;;2.80;;
48635;SDS011;34429;52.332;5.614;2023-01-31T09:12:48;13.85;;;3.55;;
48635;SDS011;34429;52.332;5.614;2023-01-31T09:15:17;28.02;;;3.67;;
48635;SDS011;34429;52.332;5.614;2023-01-31T09:17:45;11.52;;;3.45;;
48635;SDS011;34429;52.332;5.614;2023-01-31T09:20:16;15.10;;;3.38;;
48635;SDS011;34429;52.332;5.614;2023-01-31T09:22:45;16.05;;;3.13;;
48635;SDS011;34429;52.332;5.614;2023-01-31T09:25:13;15.80;;;2.92;;
48635;SDS011;34429;52.332;5.614;2023-01-31T09:27:41;10.90;;;2.63;;
48635;SDS011;34429;52.332;5.614;2023-01-31T09:30:10;15.43;;;3.60;;
48635;SDS011;34429;52.332;5.614;2023-01-31T09:32:40;16.90;;;3.25;;
48635;SDS011;34429;52.332;5.614;2023-01-31T09:35:10;13.77;;;2.90;;
48635;SDS011;34429;52.332;5.614;2023-01-31T09:37:41;10.97;;;3.77;;
48635;SDS011;34429;52.332;5.614;2023-01-31T09:40:10;12.43;;;2.42;;
48635;SDS011;34429;52.332;5.614;2023-01-31T09:42:46;12.60;;;3.15;;
48635;SDS011;34429;52.332;5.614;2023-01-31T09:45:21;11.82;;;2.53;;
48635;SDS011;34429;52.332;5.614;2023-01-31T09:47:57;9.90;;;2.83;;
48635;SDS011;34429;52.332;5.614;2023-01-31T09:50:30;12.15;;;2.63;;
48635;SDS011;34429;52.332;5.614;2023-01-31T09:53:04;10.98;;;2.22;;
48635;SDS011;34429;52.332;5.614;2023-01-31T09:55:34;14.63;;;3.13;;
48635;SDS011;34429;52.332;5.614;2023-01-31T09:58:14;12.02;;;2.80;;
48635;SDS011;34429;52.332;5.614;2023-01-31T10:03:20;11.93;;;2.28;;
48635;SDS011;34429;52.332;5.614;2023-01-31T10:08:42;12.65;;;2.90;;
48635;SDS011;34429;52.332;5.614;2023-01-31T10:11:15;6.53;;;2.22;;
48635;SDS011;34429;52.332;5.614;2023-01-31T10:13:52;16.35;;;3.05;;
48635;SDS011;34429;52.332;5.614;2023-01-31T10:16:26;10.93;;;3.08;;
48635;SDS011;34429;52.332;5.614;2023-01-31T10:19:01;12.13;;;3.40;;
48635;SDS011;34429;52.332;5.614;2023-01-31T10:21:34;13.27;;;3.22;;
48635;SDS011;34429;52.332;5.614;2023-01-31T10:24:10;11.25;;;3.08;;
48635;SDS011;34429;52.332;5.614;2023-01-31T10:26:42;11.75;;;3.58;;
48635;SDS011;34429;52.332;5.614;2023-01-31T10:29:15;11.15;;;2.97;;
48635;SDS011;34429;52.332;5.614;2023-01-31T10:31:54;12.52;;;3.50;;
48635;SDS011;34429;52.332;5.614;2023-01-31T10:34:29;11.00;;;3.00;;
48635;SDS011;34429;52.332;5.614;2023-01-31T10:37:04;13.88;;;3.10;;
48635;SDS011;34429;52.332;5.614;2023-01-31T10:39:39;16.48;;;3.60;;
48635;SDS011;34429;52.332;5.614;2023-01-31T10:42:13;7.82;;;2.55;;
48635;SDS011;34429;52.332;5.614;2023-01-31T10:44:49;14.60;;;3.35;;
48635;SDS011;34429;52.332;5.614;2023-01-31T10:47:20;12.55;;;2.90;;
48635;SDS011;34429;52.332;5.614;2023-01-31T10:49:54;14.00;;;3.55;;
48635;SDS011;34429;52.332;5.614;2023-01-31T10:52:31;17.85;;;3.47;;
48635;SDS011;34429;52.332;5.614;2023-01-31T10:58:19;15.98;;;3.75;;
48635;SDS011;34429;52.332;5.614;2023-01-31T11:00:49;14.75;;;3.85;;
48635;SDS011;34429;52.332;5.614;2023-01-31T11:03:18;10.07;;;4.03;;
48635;SDS011;34429;52.332;5.614;2023-01-31T11:05:47;13.35;;;3.83;;
48635;SDS011;34429;52.332;5.614;2023-01-31T11:08:28;15.95;;;4.28;;
48635;SDS011;34429;52.332;5.614;2023-01-31T11:11:06;19.67;;;3.97;;
48635;SDS011;34429;52.332;5.614;2023-01-31T11:13:36;15.80;;;3.67;;
48635;SDS011;34429;52.332;5.614;2023-01-31T11:16:06;14.48;;;4.00;;
48635;SDS011;34429;52.332;5.614;2023-01-31T11:18:40;15.98;;;4.32;;
48635;SDS011;34429;52.332;5.614;2023-01-31T11:21:17;18.60;;;3.83;;
48635;SDS011;34429;52.332;5.614;2023-01-31T11:23:48;19.17;;;4.53;;
48635;SDS011;34429;52.332;5.614;2023-01-31T11:26:27;14.55;;;4.10;;
48635;SDS011;34429;52.332;5.614;2023-01-31T11:28:58;18.60;;;4.75;;
48635;SDS011;34429;52.332;5.614;2023-01-31T11:31:28;26.75;;;4.97;;
48635;SDS011;34429;52.332;5.614;2023-01-31T11:33:59;20.05;;;4.15;;
48635;SDS011;34429;52.332;5.614;2023-01-31T11:36:30;24.55;;;5.18;;
48635;SDS011;34429;52.332;5.614;2023-01-31T11:39:00;15.02;;;4.18;;
48635;SDS011;34429;52.332;5.614;2023-01-31T11:41:53;13.57;;;3.80;;
48635;SDS011;34429;52.332;5.614;2023-01-31T11:44:22;14.85;;;4.53;;
48635;SDS011;34429;52.332;5.614;2023-01-31T11:46:52;15.48;;;3.95;;
48635;SDS011;34429;52.332;5.614;2023-01-31T11:49:27;15.93;;;4.10;;
48635;SDS011;34429;52.332;5.614;2023-01-31T11:51:58;13.30;;;3.38;;
48635;SDS011;34429;52.332;5.614;2023-01-31T11:54:30;16.65;;;3.03;;
48635;SDS011;34429;52.332;5.614;2023-01-31T11:57:04;16.88;;;4.57;;
48635;SDS011;34429;52.332;5.614;2023-01-31T11:59:43;15.55;;;3.45;;
48635;SDS011;34429;52.332;5.614;2023-01-31T12:02:20;17.30;;;4.38;;
48635;SDS011;34429;52.332;5.614;2023-01-31T12:04:53;13.55;;;2.70;;
48635;SDS011;34429;52.332;5.614;2023-01-31T12:07:22;12.57;;;3.50;;
48635;SDS011;34429;52.332;5.614;2023-01-31T12:09:53;12.00;;;2.70;;
48635;SDS011;34429;52.332;5.614;2023-01-31T12:12:26;14.98;;;3.10;;
48635;SDS011;34429;52.332;5.614;2023-01-31T12:14:59;17.58;;;3.08;;
48635;SDS011;34429;52.332;5.614;2023-01-31T12:17:30;12.02;;;2.45;;
48635;SDS011;34429;52.332;5.614;2023-01-31T12:20:13;14.63;;;2.80;;
48635;SDS011;34429;52.332;5.614;2023-01-31T12:22:58;13.18;;;3.17;;
48635;SDS011;34429;52.332;5.614;2023-01-31T12:25:40;9.63;;;2.42;;
48635;SDS011;34429;52.332;5.614;2023-01-31T12:28:23;15.77;;;2.67;;
48635;SDS011;34429;52.332;5.614;2023-01-31T12:31:05;10.20;;;2.55;;
48635;SDS011;34429;52.332;5.614;2023-01-31T12:33:49;7.82;;;1.88;;
48635;SDS011;34429;52.332;5.614;2023-01-31T12:36:32;9.30;;;4.00;;
48635;SDS011;34429;52.332;5.614;2023-01-31T12:39:17;18.38;;;3.45;;
48635;SDS011;34429;52.332;5.614;2023-01-31T12:42:12;12.98;;;3.17;;
48635;SDS011;34429;52.332;5.614;2023-01-31T12:44:55;11.40;;;3.08;;
48635;SDS011;34429;52.332;5.614;2023-01-31T12:50:54;19.17;;;3.25;;
48635;SDS011;34429;52.332;5.614;2023-01-31T12:53:32;7.90;;;3.15;;
48635;SDS011;34429;52.332;5.614;2023-01-31T12:56:20;20.95;;;4.72;;
48635;SDS011;34429;52.332;5.614;2023-01-31T12:59:04;9.93;;;2.70;;
48635;SDS011;34429;52.332;5.614;2023-01-31T13:01:45;17.63;;;2.85;;
48635;SDS011;34429;52.332;5.614;2023-01-31T13:04:27;10.85;;;3.05;;
48635;SDS011;34429;52.332;5.614;2023-01-31T13:07:05;10.43;;;2.58;;
48635;SDS011;34429;52.332;5.614;2023-01-31T13:09:39;11.45;;;2.60;;
48635;SDS011;34429;52.332;5.614;2023-01-31T13:12:08;19.67;;;3.87;;
48635;SDS011;34429;52.332;5.614;2023-01-31T13:14:42;13.13;;;2.80;;
48635;SDS011;34429;52.332;5.614;2023-01-31T13:17:16;12.25;;;2.78;;
48635;SDS011;34429;52.332;5.614;2023-01-31T13:19:50;13.65;;;2.92;;
48635;SDS011;34429;52.332;5.614;2023-01-31T13:22:24;9.45;;;2.40;;
48635;SDS011;34429;52.332;5.614;2023-01-31T13:24:58;12.30;;;2.85;;
48635;SDS011;34429;52.332;5.614;2023-01-31T13:27:36;7.78;;;1.98;;
48635;SDS011;34429;52.332;5.614;2023-01-31T13:30:13;10.30;;;2.38;;
48635;SDS011;34429;52.332;5.614;2023-01-31T13:32:48;10.05;;;2.33;;
48635;SDS011;34429;52.332;5.614;2023-01-31T13:35:20;12.65;;;2.55;;
48635;SDS011;34429;52.332;5.614;2023-01-31T13:37:55;11.00;;;2.25;;
48635;SDS011;34429;52.332;5.614;2023-01-31T13:40:27;9.23;;;3.15;;
48635;SDS011;34429;52.332;5.614;2023-01-31T13:42:59;9.55;;;2.65;;
48635;SDS011;34429;52.332;5.614;2023-01-31T13:45:34;15.05;;;2.47;;
48635;SDS011;34429;52.332;5.614;2023-01-31T13:48:07;11.80;;;2.63;;
48635;SDS011;34429;52.332;5.614;2023-01-31T13:50:45;15.05;;;3.08;;
48635;SDS011;34429;52.332;5.614;2023-01-31T13:53:21;7.40;;;2.15;;
48635;SDS011;34429;52.332;5.614;2023-01-31T13:55:53;10.93;;;2.35;;
48635;SDS011;34429;52.332;5.614;2023-01-31T13:58:23;11.90;;;3.38;;
48635;SDS011;34429;52.332;5.614;2023-01-31T14:00:56;11.65;;;2.83;;
48635;SDS011;34429;52.332;5.614;2023-01-31T14:03:28;12.95;;;2.33;;
48635;SDS011;34429;52.332;5.614;2023-01-31T14:05:59;9.82;;;2.33;;
48635;SDS011;34429;52.332;5.614;2023-01-31T14:08:34;10.57;;;2.47;;
48635;SDS011;34429;52.332;5.614;2023-01-31T14:16:47;6.90;;;2.55;;
48635;SDS011;34429;52.332;5.614;2023-01-31T14:19:29;8.73;;;2.35;;
48635;SDS011;34429;52.332;5.614;2023-01-31T14:22:14;10.60;;;3.22;;
48635;SDS011;34429;52.332;5.614;2023-01-31T14:27:38;8.30;;;2.65;;
48635;SDS011;34429;52.332;5.614;2023-01-31T14:32:45;11.48;;;2.72;;
48635;SDS011;34429;52.332;5.614;2023-01-31T14:35:20;11.63;;;2.75;;
48635;SDS011;34429;52.332;5.614;2023-01-31T14:37:59;18.02;;;3.35;;
48635;SDS011;34429;52.332;5.614;2023-01-31T14:40:38;12.23;;;2.22;;
48635;SDS011;34429;52.332;5.614;2023-01-31T14:43:19;13.13;;;2.58;;
48635;SDS011;34429;52.332;5.614;2023-01-31T14:46:08;13.35;;;2.55;;
48635;SDS011;34429;52.332;5.614;2023-01-31T14:48:59;15.82;;;2.63;;
48635;SDS011;34429;52.332;5.614;2023-01-31T14:51:45;17.35;;;2.60;;
48635;SDS011;34429;52.332;5.614;2023-01-31T14:54:35;13.93;;;3.28;;
48635;SDS011;34429;52.332;5.614;2023-01-31T14:57:15;8.55;;;2.30;;
48635;SDS011;34429;52.332;5.614;2023-01-31T14:59:51;9.82;;;2.58;;
48635;SDS011;34429;52.332;5.614;2023-01-31T15:02:24;9.18;;;2.10;;
48635;SDS011;34429;52.332;5.614;2023-01-31T15:05:08;10.77;;;3.20;;
48635;SDS011;34429;52.332;5.614;2023-01-31T15:13:35;11.60;;;2.25;;
48635;SDS011;34429;52.332;5.614;2023-01-31T15:16:06;8.27;;;2.03;;
48635;SDS011;34429;52.332;5.614;2023-01-31T15:18:43;11.85;;;2.60;;
48635;SDS011;34429;52.332;5.614;2023-01-31T15:21:20;7.68;;;2.47;;
48635;SDS011;34429;52.332;5.614;2023-01-31T15:23:52;9.17;;;2.70;;
48635;SDS011;34429;52.332;5.614;2023-01-31T15:26:22;10.88;;;3.13;;
48635;SDS011;34429;52.332;5.614;2023-01-31T15:28:54;8.38;;;2.28;;
48635;SDS011;34429;52.332;5.614;2023-01-31T15:31:27;11.48;;;2.13;;
48635;SDS011;34429;52.332;5.614;2023-01-31T15:34:00;7.53;;;2.13;;
48635;SDS011;34429;52.332;5.614;2023-01-31T15:36:35;13.20;;;2.58;;
48635;SDS011;34429;52.332;5.614;2023-01-31T15:39:16;10.45;;;2.40;;
48635;SDS011;34429;52.332;5.614;2023-01-31T15:41:49;13.63;;;2.55;;
48635;SDS011;34429;52.332;5.614;2023-01-31T15:44:17;8.40;;;1.90;;
48635;SDS011;34429;52.332;5.614;2023-01-31T15:46:48;8.65;;;2.20;;
48635;SDS011;34429;52.332;5.614;2023-01-31T15:49:21;10.43;;;2.55;;
48635;SDS011;34429;52.332;5.614;2023-01-31T15:52:09;12.32;;;2.00;;